createdAt,value
2022-08-12T00:01:03.275Z,20.77
2022-08-12T00:03:50.296Z,20.79
2022-08-12T00:06:38.427Z,20.75
2022-08-12T00:09:26.387Z,20.75
2022-08-12T00:12:14.787Z,20.78
2022-08-12T00:15:03.096Z,20.75
2022-08-12T00:17:49.010Z,20.79
2022-08-12T00:20:36.991Z,21.00
2022-08-12T00:23:22.752Z,21.00
2022-08-12T00:26:22.583Z,21.09
2022-08-12T00:29:10.736Z,21.07
2022-08-12T00:32:01.399Z,21.17
2022-08-12T00:34:49.353Z,21.10
2022-08-12T00:37:35.750Z,21.05
2022-08-12T00:40:21.991Z,21.06
2022-08-12T00:42:49.314Z,21.06
2022-08-12T00:45:17.402Z,20.75
2022-08-12T00:47:47.551Z,20.68
2022-08-12T00:50:19.494Z,20.77
2022-08-12T00:52:49.483Z,20.76
2022-08-12T00:55:18.802Z,20.72
2022-08-12T00:57:49.278Z,20.60
2022-08-12T01:00:23.875Z,20.62
2022-08-12T01:02:58.119Z,20.62
2022-08-12T01:05:50.173Z,20.59
2022-08-12T01:08:35.907Z,20.57
2022-08-12T01:11:35.826Z,20.62
2022-08-12T01:14:04.405Z,20.56
2022-08-12T01:16:32.993Z,20.63
2022-08-12T01:19:03.253Z,20.58
2022-08-12T01:21:57.913Z,20.57
2022-08-12T01:24:57.528Z,20.54
2022-08-12T01:27:27.238Z,20.54
2022-08-12T01:29:58.266Z,20.55
2022-08-12T01:32:30.088Z,20.56
2022-08-12T01:35:07.065Z,20.54
2022-08-12T01:37:49.899Z,20.51
2022-08-12T01:40:33.262Z,20.45
2022-08-12T01:43:08.253Z,20.50
2022-08-12T01:45:43.307Z,20.47
2022-08-12T01:48:24.396Z,20.45
2022-08-12T01:51:06.444Z,20.34
2022-08-12T01:53:48.595Z,20.34
2022-08-12T01:56:26.194Z,20.30
2022-08-12T01:59:21.222Z,20.24
2022-08-12T02:01:54.271Z,20.21
2022-08-12T02:04:53.945Z,20.23
2022-08-12T02:07:58.351Z,20.19
2022-08-12T02:10:56.649Z,20.17
2022-08-12T02:13:49.682Z,20.14
2022-08-12T02:16:31.809Z,20.15
2022-08-12T02:19:22.504Z,20.10
2022-08-12T02:22:01.040Z,20.00
2022-08-12T02:24:35.297Z,20.06
2022-08-12T02:27:04.577Z,19.96
2022-08-12T02:29:34.553Z,19.78
2022-08-12T02:32:04.682Z,19.66
2022-08-12T02:34:34.503Z,19.64
2022-08-12T02:37:04.020Z,19.71
2022-08-12T02:39:34.697Z,19.69
2022-08-12T02:42:06.892Z,19.73
2022-08-12T02:44:43.447Z,19.76
2022-08-12T02:47:55.716Z,19.76
2022-08-12T02:50:04.816Z,19.76
2022-08-12T02:52:34.887Z,19.78
2022-08-12T02:55:12.897Z,19.80
2022-08-12T02:57:57.111Z,19.73
2022-08-12T03:00:28.710Z,19.63
2022-08-12T03:03:00.936Z,19.60
2022-08-12T03:05:30.080Z,19.53
2022-08-12T03:08:30.544Z,19.51
2022-08-12T03:11:04.738Z,19.45
2022-08-12T03:13:40.327Z,19.48
2022-08-12T03:16:10.946Z,19.43
2022-08-12T03:18:45.790Z,19.41
2022-08-12T03:21:55.386Z,19.41
2022-08-12T03:24:09.365Z,19.43
2022-08-12T03:26:38.825Z,19.41
2022-08-12T03:29:08.299Z,19.40
2022-08-12T03:31:37.944Z,19.36
2022-08-12T03:34:08.656Z,19.36
2022-08-12T03:36:38.420Z,19.29
2022-08-12T03:39:36.865Z,19.27
2022-08-12T03:42:17.672Z,19.23
2022-08-12T03:45:15.358Z,19.20
2022-08-12T03:48:18.555Z,19.20
2022-08-12T03:51:05.686Z,19.19
2022-08-12T03:53:51.030Z,19.16
2022-08-12T03:56:36.810Z,19.16
2022-08-12T03:59:25.502Z,19.23
2022-08-12T04:01:57.798Z,19.21
2022-08-12T04:04:34.050Z,19.17
2022-08-12T04:07:03.466Z,19.12
2022-08-12T04:09:32.316Z,18.94
2022-08-12T04:12:17.971Z,18.92
2022-08-12T04:14:46.990Z,18.88
2022-08-12T04:17:16.760Z,18.82
2022-08-12T04:19:48.383Z,18.88
2022-08-12T04:22:16.428Z,18.91
2022-08-12T04:24:50.711Z,18.95
2022-08-12T04:27:19.232Z,19.11
2022-08-12T04:30:29.015Z,19.19
2022-08-12T04:32:42.220Z,19.30
2022-08-12T04:35:15.173Z,19.40
2022-08-12T04:37:58.451Z,19.56
2022-08-12T04:40:30.882Z,19.77
2022-08-12T04:43:01.576Z,20.00
2022-08-12T04:45:31.210Z,20.09
2022-08-12T04:47:59.247Z,20.36
2022-08-12T04:50:35.081Z,20.58
2022-08-12T04:53:06.675Z,20.70
2022-08-12T04:55:38.452Z,20.86
2022-08-12T04:58:06.706Z,20.92
2022-08-12T05:00:35.472Z,20.83
2022-08-12T05:03:03.718Z,20.92
2022-08-12T05:05:36.126Z,21.14
2022-08-12T05:08:07.924Z,21.10
2022-08-12T05:10:36.394Z,21.15
2022-08-12T05:13:08.387Z,21.36
2022-08-12T05:16:04.739Z,21.42
2022-08-12T05:18:29.331Z,21.54
2022-08-12T05:21:00.333Z,21.67
2022-08-12T05:23:29.112Z,21.52
2022-08-12T05:25:57.964Z,21.71
2022-08-12T05:28:28.087Z,21.89
2022-08-12T05:30:57.175Z,22.03
2022-08-12T05:33:37.587Z,22.11
2022-08-12T05:36:09.230Z,22.41
2022-08-12T05:38:55.804Z,22.62
2022-08-12T05:41:25.708Z,22.86
2022-08-12T05:43:55.831Z,22.93
2022-08-12T05:46:25.483Z,22.60
2022-08-12T05:48:55.501Z,22.63
2022-08-12T05:51:39.520Z,23.13
2022-08-12T05:54:10.596Z,23.54
2022-08-12T05:56:40.194Z,23.70
2022-08-12T05:59:11.518Z,24.04
2022-08-12T06:02:08.853Z,23.90
2022-08-12T06:04:29.025Z,23.87
2022-08-12T06:06:58.288Z,23.77
2022-08-12T06:09:31.073Z,23.96
2022-08-12T06:12:05.695Z,23.89
2022-08-12T06:14:37.792Z,23.87
2022-08-12T06:17:08.873Z,24.10
2022-08-12T06:20:26.731Z,24.28
2022-08-12T06:22:27.791Z,24.23
2022-08-12T06:24:56.048Z,24.44
2022-08-12T06:27:24.940Z,24.48
2022-08-12T06:30:09.013Z,24.54
2022-08-12T06:32:51.710Z,24.54
2022-08-12T06:35:48.867Z,24.42
2022-08-12T06:38:27.164Z,24.55
2022-08-12T06:41:14.844Z,24.75
2022-08-12T06:44:06.574Z,24.80
2022-08-12T06:46:32.964Z,24.86
2022-08-12T06:49:01.794Z,25.23
2022-08-12T06:51:34.758Z,25.41
2022-08-12T06:54:05.155Z,25.40
2022-08-12T06:57:02.435Z,25.56
2022-08-12T06:59:23.623Z,25.67
2022-08-12T07:01:52.575Z,26.06
2022-08-12T07:04:39.067Z,26.27
2022-08-12T07:07:09.568Z,26.38
2022-08-12T07:10:06.908Z,26.63
2022-08-12T07:12:33.034Z,26.93
2022-08-12T07:15:02.422Z,27.07
2022-08-12T07:17:38.023Z,27.10
2022-08-12T07:20:20.249Z,27.02
2022-08-12T07:23:01.014Z,27.53
2022-08-12T07:25:40.323Z,27.84
2022-08-12T07:28:16.033Z,27.95
2022-08-12T07:30:48.401Z,28.13
2022-08-12T07:33:17.921Z,27.76
2022-08-12T07:35:48.046Z,27.96
2022-08-12T07:38:29.120Z,28.54
2022-08-12T07:41:04.094Z,28.62
2022-08-12T07:43:33.795Z,28.61
2022-08-12T07:46:05.381Z,28.92
2022-08-12T07:48:37.987Z,28.94
2022-08-12T07:51:06.811Z,28.48
2022-08-12T07:53:49.128Z,28.81
2022-08-12T07:56:25.531Z,28.94
2022-08-12T07:58:54.071Z,29.18
2022-08-12T08:01:23.869Z,29.03
2022-08-12T08:04:15.111Z,29.30
2022-08-12T08:06:46.124Z,29.36
2022-08-12T08:09:19.544Z,29.17
2022-08-12T08:12:06.873Z,29.38
2022-08-12T08:14:35.374Z,30.41
2022-08-12T08:17:06.568Z,30.70
2022-08-12T08:20:03.206Z,30.48
2022-08-12T08:22:32.101Z,31.40
2022-08-12T08:25:34.844Z,31.25
2022-08-12T08:28:02.766Z,31.50
2022-08-12T08:30:32.338Z,31.10
2022-08-12T08:33:00.763Z,32.41
2022-08-12T08:35:46.270Z,32.74
2022-08-12T08:38:32.475Z,32.49
2022-08-12T08:42:15.318Z,33.40
2022-08-12T08:44:12.552Z,33.18
2022-08-12T08:46:40.887Z,32.89
2022-08-12T08:49:09.153Z,32.60
2022-08-12T08:51:38.626Z,32.66
2022-08-12T08:54:08.969Z,32.02
2022-08-12T08:56:44.095Z,31.72
2022-08-12T08:59:14.667Z,31.35
2022-08-12T09:01:44.197Z,31.31
2022-08-12T09:05:13.567Z,30.94
2022-08-12T09:07:17.897Z,31.21
2022-08-12T09:10:03.739Z,30.90
2022-08-12T09:12:54.643Z,30.90
2022-08-12T09:15:35.604Z,30.47
2022-08-12T09:18:05.977Z,30.37
2022-08-12T09:20:39.152Z,30.33
2022-08-12T09:23:59.028Z,30.45
2022-08-12T09:26:04.511Z,30.70
2022-08-12T09:28:37.765Z,30.71
2022-08-12T09:32:03.568Z,30.84
2022-08-12T09:34:29.835Z,30.97
2022-08-12T09:36:58.008Z,31.03
2022-08-12T09:40:06.285Z,31.11
2022-08-12T09:42:43.544Z,31.10
2022-08-12T09:45:24.671Z,31.39
2022-08-12T09:48:20.148Z,31.47
2022-08-12T09:50:55.302Z,31.71
2022-08-12T09:53:29.510Z,32.20
2022-08-12T09:56:57.995Z,32.83
2022-08-12T09:59:01.441Z,32.45
2022-08-12T10:01:35.324Z,31.60
2022-08-12T10:04:20.867Z,30.42
2022-08-12T10:06:54.729Z,30.38
2022-08-12T10:09:28.959Z,31.71
2022-08-12T10:12:33.072Z,33.28
2022-08-12T10:15:01.847Z,34.67
2022-08-12T10:17:30.375Z,34.24
2022-08-12T10:20:01.577Z,33.04
2022-08-12T10:22:39.475Z,33.36
2022-08-12T10:26:34.883Z,34.16
2022-08-12T10:28:32.503Z,35.91
2022-08-12T10:31:01.237Z,35.22
2022-08-12T10:33:32.247Z,36.15
2022-08-12T10:36:05.173Z,35.12
2022-08-12T10:38:41.335Z,35.99
2022-08-12T10:41:57.145Z,36.61
2022-08-12T10:44:21.392Z,37.02
2022-08-12T10:46:52.815Z,37.82
2022-08-12T10:50:03.519Z,37.69
2022-08-12T10:52:33.881Z,37.87
2022-08-12T10:55:00.542Z,33.54
2022-08-12T10:58:12.573Z,35.54
2022-08-12T11:00:31.982Z,35.37
2022-08-12T11:04:24.246Z,34.46
2022-08-12T11:07:09.832Z,34.27
2022-08-12T11:08:46.175Z,35.97
2022-08-12T11:12:07.794Z,35.61
2022-08-12T11:14:09.124Z,36.11
2022-08-12T11:17:33.679Z,35.64
2022-08-12T11:19:49.401Z,34.40
2022-08-12T11:22:23.983Z,33.03
2022-08-12T11:24:55.269Z,32.37
2022-08-12T11:27:23.901Z,32.85
2022-08-12T11:30:03.737Z,33.29
2022-08-12T11:32:39.084Z,35.61
2022-08-12T11:35:09.173Z,36.32
2022-08-12T11:37:58.108Z,37.20
2022-08-12T11:40:29.789Z,38.06
2022-08-12T11:43:18.912Z,40.10
2022-08-12T11:45:53.100Z,39.74
2022-08-12T11:48:27.183Z,39.01
2022-08-12T11:50:56.129Z,39.24
2022-08-12T11:53:59.519Z,40.71
2022-08-12T11:56:13.668Z,42.55
2022-08-12T12:01:59.080Z,40.31
2022-08-12T12:04:29.096Z,40.75
2022-08-12T12:07:07.312Z,40.57
2022-08-12T12:09:51.819Z,41.39
2022-08-12T12:12:25.354Z,40.36
2022-08-12T12:14:54.641Z,41.23
2022-08-12T12:17:24.411Z,43.22
2022-08-12T12:19:53.274Z,44.82
2022-08-12T12:22:23.699Z,43.96
2022-08-12T12:24:59.339Z,40.24
2022-08-12T12:28:03.882Z,39.44
2022-08-12T12:30:33.667Z,40.82
2022-08-12T12:33:02.182Z,39.88
2022-08-12T12:36:18.298Z,40.55
2022-08-12T12:38:20.100Z,40.27
2022-08-12T12:40:53.416Z,40.78
2022-08-12T12:43:28.473Z,42.68
2022-08-12T12:46:05.440Z,42.25
2022-08-12T12:48:33.983Z,42.23
2022-08-12T12:51:49.185Z,43.47
2022-08-12T12:54:09.679Z,41.23
2022-08-12T12:56:42.278Z,42.10
2022-08-12T12:59:55.512Z,41.33
2022-08-12T13:02:08.179Z,42.69
2022-08-12T13:04:38.240Z,38.62
2022-08-12T13:07:07.084Z,40.88
2022-08-12T13:09:36.121Z,38.87
2022-08-12T13:12:10.946Z,35.69
2022-08-12T13:14:40.457Z,38.34
2022-08-12T13:17:14.568Z,40.10
2022-08-12T13:19:46.611Z,40.08
2022-08-12T13:22:20.041Z,43.01
2022-08-12T13:24:51.911Z,45.26
2022-08-12T13:27:23.113Z,42.78
2022-08-12T13:30:03.626Z,44.42
2022-08-12T13:32:32.072Z,43.54
2022-08-12T13:35:04.716Z,42.13
2022-08-12T13:37:55.155Z,41.79
2022-08-12T13:40:24.881Z,42.43
2022-08-12T13:42:57.607Z,43.30
2022-08-12T13:45:29.100Z,43.43
2022-08-12T13:47:59.948Z,43.47
2022-08-12T13:50:32.585Z,44.44
2022-08-12T13:53:06.274Z,42.91
2022-08-12T13:55:59.740Z,37.61
2022-08-12T13:58:32.934Z,35.59
2022-08-12T14:01:06.139Z,33.12
2022-08-12T14:03:50.916Z,33.05
2022-08-12T14:06:20.824Z,32.92
2022-08-12T14:08:50.578Z,37.62
2022-08-12T14:11:25.140Z,41.09
2022-08-12T14:14:03.829Z,43.74
2022-08-12T14:16:49.411Z,43.23
2022-08-12T14:19:24.398Z,38.90
2022-08-12T14:22:00.793Z,37.36
2022-08-12T14:24:40.560Z,41.65
2022-08-12T14:27:11.269Z,45.10
2022-08-12T14:30:04.483Z,41.86
2022-08-12T14:32:34.947Z,39.62
2022-08-12T14:35:08.966Z,41.29
2022-08-12T14:37:56.236Z,40.80
2022-08-12T14:40:29.210Z,39.86
2022-08-12T14:42:58.338Z,38.21
2022-08-12T14:45:45.424Z,36.00
2022-08-12T14:48:18.875Z,35.33
2022-08-12T14:52:10.475Z,36.30
2022-08-12T14:54:55.858Z,36.97
2022-08-12T14:59:57.420Z,37.96
2022-08-12T15:02:21.227Z,36.13
2022-08-12T15:04:55.940Z,34.33
2022-08-12T15:07:33.426Z,36.28
2022-08-12T15:10:13.551Z,39.58
2022-08-12T15:12:41.624Z,41.46
2022-08-12T15:15:11.276Z,42.73
2022-08-12T15:17:39.848Z,42.83
2022-08-12T15:20:32.918Z,44.83
2022-08-12T15:22:59.897Z,38.53
2022-08-12T15:25:28.726Z,38.07
2022-08-12T15:28:04.392Z,39.22
2022-08-12T15:30:37.061Z,38.76
2022-08-12T15:33:12.743Z,37.68
2022-08-12T15:35:50.279Z,35.41
2022-08-12T15:38:24.664Z,33.12
2022-08-12T15:40:53.916Z,32.34
2022-08-12T15:43:52.135Z,32.11
2022-08-12T15:46:15.170Z,32.03
2022-08-12T15:48:46.692Z,32.15
2022-08-12T15:51:57.314Z,32.20
2022-08-12T15:54:33.914Z,32.80
2022-08-12T15:57:08.154Z,35.90
2022-08-12T16:00:03.801Z,37.21
2022-08-12T16:02:29.466Z,39.37
2022-08-12T16:04:59.032Z,38.43
2022-08-12T16:07:30.967Z,35.93
2022-08-12T16:10:05.886Z,34.58
2022-08-12T16:12:39.634Z,34.66
2022-08-12T16:15:08.745Z,34.81
2022-08-12T16:18:09.064Z,33.55
2022-08-12T16:20:33.204Z,32.97
2022-08-12T16:23:36.372Z,34.81
2022-08-12T16:26:06.331Z,34.41
2022-08-12T16:28:43.942Z,33.64
2022-08-12T16:31:22.656Z,33.13
2022-08-12T16:33:58.818Z,33.09
2022-08-12T16:36:30.146Z,33.11
2022-08-12T16:39:02.758Z,32.93
2022-08-12T16:41:37.813Z,32.59
2022-08-12T16:44:08.368Z,34.36
2022-08-12T16:46:37.590Z,35.31
2022-08-12T16:49:09.086Z,34.21
2022-08-12T16:51:46.729Z,33.72
2022-08-12T16:54:18.592Z,34.03
2022-08-12T16:56:54.640Z,33.55
2022-08-12T16:59:52.972Z,32.94
2022-08-12T17:02:18.019Z,33.62
2022-08-12T17:05:04.254Z,34.13
2022-08-12T17:07:36.671Z,33.22
2022-08-12T17:10:09.364Z,32.61
2022-08-12T17:12:40.954Z,33.32
2022-08-12T17:15:41.310Z,34.87
2022-08-12T17:18:42.483Z,36.10
2022-08-12T17:20:49.510Z,36.34
2022-08-12T17:23:19.620Z,36.32
2022-08-12T17:25:53.397Z,36.08
2022-08-12T17:28:22.557Z,36.24
2022-08-12T17:30:59.566Z,35.57
2022-08-12T17:33:33.553Z,35.23
2022-08-12T17:36:05.884Z,34.42
2022-08-12T17:38:35.924Z,34.28
2022-08-12T17:41:23.174Z,33.65
2022-08-12T17:43:58.909Z,33.04
2022-08-12T17:46:33.119Z,32.76
2022-08-12T17:49:18.952Z,32.78
2022-08-12T17:52:02.925Z,32.86
2022-08-12T17:54:32.724Z,32.78
2022-08-12T17:57:16.029Z,32.97
2022-08-12T17:59:48.741Z,32.99
2022-08-12T18:02:29.944Z,32.94
2022-08-12T18:05:04.789Z,33.11
2022-08-12T18:07:39.503Z,32.65
2022-08-12T18:10:08.722Z,32.48
2022-08-12T18:12:38.746Z,32.18
2022-08-12T18:15:11.674Z,31.61
2022-08-12T18:17:59.303Z,31.27
2022-08-12T18:20:29.766Z,30.90
2022-08-12T18:23:01.208Z,30.71
2022-08-12T18:26:14.281Z,30.66
2022-08-12T18:28:43.066Z,30.60
2022-08-12T18:31:13.748Z,30.13
2022-08-12T18:33:44.139Z,29.85
2022-08-12T18:36:22.437Z,29.44
2022-08-12T18:38:56.102Z,29.02
2022-08-12T18:41:34.220Z,28.64
2022-08-12T18:44:09.771Z,28.32
2022-08-12T18:46:54.270Z,28.03
2022-08-12T18:49:39.112Z,27.76
2022-08-12T18:52:11.877Z,27.54
2022-08-12T18:54:48.955Z,27.37
2022-08-12T18:58:06.858Z,27.26
2022-08-12T19:00:21.494Z,27.04
2022-08-12T19:02:51.992Z,26.91
2022-08-12T19:05:53.114Z,26.74
2022-08-12T19:08:13.991Z,26.53
2022-08-12T19:10:50.431Z,26.29
2022-08-12T19:13:39.020Z,26.13
2022-08-12T19:16:11.386Z,26.04
2022-08-12T19:18:44.502Z,25.92
2022-08-12T19:21:15.949Z,25.81
2022-08-12T19:24:05.936Z,25.77
2022-08-12T19:26:34.935Z,25.71
2022-08-12T19:29:05.198Z,25.59
2022-08-12T19:32:03.648Z,25.54
2022-08-12T19:37:38.562Z,25.38
2022-08-12T19:40:30.771Z,25.30
2022-08-12T19:43:02.275Z,25.20
2022-08-12T19:45:48.893Z,25.12
2022-08-12T19:48:19.327Z,24.97
2022-08-12T19:50:52.288Z,24.83
2022-08-12T19:53:22.745Z,24.73
2022-08-12T19:55:53.491Z,24.61
2022-08-12T19:58:23.265Z,24.47
2022-08-12T20:00:54.424Z,24.39
2022-08-12T20:03:40.082Z,24.28
2022-08-12T20:06:21.689Z,24.29
2022-08-12T20:08:56.675Z,24.15
2022-08-12T20:12:09.854Z,24.02
2022-08-12T20:14:17.732Z,23.91
2022-08-12T20:16:52.020Z,23.77
2022-08-12T20:19:52.413Z,23.34
2022-08-12T20:22:23.964Z,22.86
2022-08-12T20:24:55.275Z,22.73
2022-08-12T20:27:29.248Z,22.70
2022-08-12T20:30:14.959Z,22.72
2022-08-12T20:32:54.244Z,22.76
2022-08-12T20:35:24.679Z,22.74
2022-08-12T20:38:07.404Z,22.66
2022-08-12T20:40:48.034Z,22.65
2022-08-12T20:43:19.170Z,22.57
2022-08-12T20:45:57.613Z,22.56
2022-08-12T20:48:29.444Z,22.61
2022-08-12T20:51:04.328Z,22.64
2022-08-12T20:53:58.324Z,22.66
2022-08-12T20:56:30.848Z,22.56
2022-08-12T20:59:01.536Z,22.48
2022-08-12T21:01:46.925Z,22.47
2022-08-12T21:04:35.224Z,22.44
2022-08-12T21:07:09.371Z,22.35
2022-08-12T21:09:42.440Z,22.25
2022-08-12T21:12:37.508Z,22.15
2022-08-12T21:15:23.079Z,22.21
2022-08-12T21:18:09.000Z,22.13
2022-08-12T21:20:50.186Z,22.08
2022-08-12T21:23:21.443Z,22.10
2022-08-12T21:25:52.562Z,21.99
2022-08-12T21:28:27.657Z,21.99
2022-08-12T21:32:35.472Z,21.92
2022-08-12T21:34:07.886Z,21.97
2022-08-12T21:36:43.304Z,22.03
2022-08-12T21:39:21.350Z,21.90
2022-08-12T21:41:52.938Z,21.83
2022-08-12T21:44:24.472Z,21.78
2022-08-12T21:47:21.125Z,21.75
2022-08-12T21:50:02.246Z,21.80
2022-08-12T21:52:36.486Z,21.81
2022-08-12T21:55:08.453Z,21.72
2022-08-12T21:57:53.275Z,21.71
2022-08-12T22:00:35.185Z,21.70
2022-08-12T22:04:01.394Z,21.66
2022-08-12T22:06:31.286Z,21.48
2022-08-12T22:09:15.804Z,21.40
2022-08-12T22:11:57.006Z,21.39
2022-08-12T22:14:30.200Z,21.32
2022-08-12T22:17:01.279Z,21.28
2022-08-12T22:19:34.892Z,21.29
2022-08-12T22:22:05.169Z,21.32
2022-08-12T22:24:33.899Z,21.21
2022-08-12T22:27:07.938Z,21.12
2022-08-12T22:30:11.224Z,21.07
2022-08-12T22:32:50.162Z,21.06
2022-08-12T22:35:55.783Z,21.01
2022-08-12T22:38:25.363Z,20.98
2022-08-12T22:40:55.052Z,21.01
2022-08-12T22:43:58.810Z,21.05
2022-08-12T22:46:52.761Z,21.06
2022-08-12T22:49:37.390Z,20.88
2022-08-12T22:52:12.263Z,20.97
2022-08-12T22:54:59.911Z,20.98
2022-08-12T22:57:49.286Z,20.84
2022-08-12T23:00:27.213Z,20.85
2022-08-12T23:03:03.008Z,20.70
2022-08-12T23:05:56.550Z,20.73
2022-08-12T23:08:22.601Z,20.66
2022-08-12T23:10:53.520Z,20.61
2022-08-12T23:13:43.750Z,20.63
2022-08-12T23:16:28.152Z,20.64
2022-08-12T23:19:11.035Z,20.68
2022-08-12T23:22:04.870Z,20.67
2022-08-12T23:24:55.869Z,20.69
2022-08-12T23:27:51.703Z,20.68
2022-08-12T23:30:32.230Z,20.67
2022-08-12T23:33:13.522Z,20.63
2022-08-12T23:35:58.953Z,20.60
2022-08-12T23:38:32.668Z,20.52
2022-08-12T23:41:02.406Z,20.48
2022-08-12T23:43:39.008Z,20.30
2022-08-12T23:46:10.996Z,20.19
2022-08-12T23:48:40.964Z,20.22
2022-08-12T23:51:22.749Z,20.28
2022-08-12T23:54:00.104Z,20.26
2022-08-12T23:56:29.304Z,20.28
2022-08-12T23:58:58.675Z,20.29
